sensor_id;sensor_type;location;lat;lon;timestamp;P1;durP1;ratioP1;P2;durP2;ratioP2
2848;SDS011;59355;52.416;13.412;2023-04-01T00:01:43;5.17;;;3.67;;
2848;SDS011;59355;52.416;13.412;2023-04-01T00:04:08;4.73;;;3.80;;
2848;SDS011;59355;52.416;13.412;2023-04-01T00:06:34;3.33;;;2.90;;
2848;SDS011;59355;52.416;13.412;2023-04-01T00:08:59;4.77;;;3.63;;
2848;SDS011;59355;52.416;13.412;2023-04-01T00:11:25;3.37;;;3.00;;
2848;SDS011;59355;52.416;13.412;2023-04-01T00:13:52;3.77;;;3.23;;
2848;SDS011;59355;52.416;13.412;2023-04-01T00:16:17;4.10;;;2.97;;
2848;SDS011;59355;52.416;13.412;2023-04-01T00:18:42;3.50;;;3.20;;
2848;SDS011;59355;52.416;13.412;2023-04-01T00:21:08;8.93;;;3.40;;
2848;SDS011;59355;52.416;13.412;2023-04-01T00:23:33;3.80;;;3.43;;
2848;SDS011;59355;52.416;13.412;2023-04-01T00:26:00;2.77;;;2.53;;
2848;SDS011;59355;52.416;13.412;2023-04-01T00:28:26;4.47;;;3.17;;
2848;SDS011;59355;52.416;13.412;2023-04-01T00:30:51;3.63;;;3.07;;
2848;SDS011;59355;52.416;13.412;2023-04-01T00:33:17;4.90;;;3.60;;
2848;SDS011;59355;52.416;13.412;2023-04-01T00:35:42;4.33;;;3.77;;
2848;SDS011;59355;52.416;13.412;2023-04-01T00:38:08;4.07;;;3.60;;
2848;SDS011;59355;52.416;13.412;2023-04-01T00:40:35;3.43;;;3.07;;
2848;SDS011;59355;52.416;13.412;2023-04-01T00:43:02;4.80;;;3.80;;
2848;SDS011;59355;52.416;13.412;2023-04-01T00:45:35;6.33;;;3.50;;
2848;SDS011;59355;52.416;13.412;2023-04-01T00:48:04;4.90;;;3.30;;
2848;SDS011;59355;52.416;13.412;2023-04-01T00:50:31;4.10;;;2.73;;
2848;SDS011;59355;52.416;13.412;2023-04-01T00:52:58;4.00;;;3.20;;
2848;SDS011;59355;52.416;13.412;2023-04-01T00:55:25;4.60;;;4.10;;
2848;SDS011;59355;52.416;13.412;2023-04-01T00:57:52;3.73;;;3.30;;
2848;SDS011;59355;52.416;13.412;2023-04-01T01:00:18;4.63;;;4.13;;
2848;SDS011;59355;52.416;13.412;2023-04-01T01:02:44;4.40;;;3.77;;
2848;SDS011;59355;52.416;13.412;2023-04-01T01:05:13;3.80;;;3.40;;
2848;SDS011;59355;52.416;13.412;2023-04-01T01:07:42;4.23;;;3.80;;
2848;SDS011;59355;52.416;13.412;2023-04-01T01:10:16;5.30;;;3.80;;
2848;SDS011;59355;52.416;13.412;2023-04-01T01:12:47;4.63;;;4.23;;
2848;SDS011;59355;52.416;13.412;2023-04-01T01:15:22;3.60;;;3.30;;
2848;SDS011;59355;52.416;13.412;2023-04-01T01:17:56;4.40;;;4.00;;
2848;SDS011;59355;52.416;13.412;2023-04-01T01:23:48;4.90;;;4.33;;
2848;SDS011;59355;52.416;13.412;2023-04-01T01:29:10;5.57;;;4.17;;
2848;SDS011;59355;52.416;13.412;2023-04-01T01:34:32;5.83;;;4.00;;
2848;SDS011;59355;52.416;13.412;2023-04-01T01:37:03;7.53;;;4.43;;
2848;SDS011;59355;52.416;13.412;2023-04-01T01:39:31;4.83;;;4.03;;
2848;SDS011;59355;52.416;13.412;2023-04-01T01:42:00;4.10;;;3.40;;
2848;SDS011;59355;52.416;13.412;2023-04-01T01:44:28;4.30;;;3.97;;
2848;SDS011;59355;52.416;13.412;2023-04-01T01:46:54;4.00;;;3.70;;
2848;SDS011;59355;52.416;13.412;2023-04-01T01:49:20;5.50;;;4.20;;
2848;SDS011;59355;52.416;13.412;2023-04-01T01:51:46;4.30;;;3.90;;
2848;SDS011;59355;52.416;13.412;2023-04-01T01:54:13;4.37;;;3.40;;
2848;SDS011;59355;52.416;13.412;2023-04-01T01:56:39;5.10;;;4.60;;
2848;SDS011;59355;52.416;13.412;2023-04-01T01:59:07;7.47;;;3.73;;
2848;SDS011;59355;52.416;13.412;2023-04-01T02:01:34;6.80;;;4.10;;
2848;SDS011;59355;52.416;13.412;2023-04-01T02:04:02;4.80;;;3.67;;
2848;SDS011;59355;52.416;13.412;2023-04-01T02:06:28;4.13;;;3.83;;
2848;SDS011;59355;52.416;13.412;2023-04-01T02:08:56;5.30;;;3.77;;
2848;SDS011;59355;52.416;13.412;2023-04-01T02:11:26;4.20;;;3.47;;
2848;SDS011;59355;52.416;13.412;2023-04-01T02:13:58;4.77;;;3.57;;
2848;SDS011;59355;52.416;13.412;2023-04-01T02:16:28;4.03;;;3.53;;
2848;SDS011;59355;52.416;13.412;2023-04-01T02:18:57;4.57;;;3.83;;
2848;SDS011;59355;52.416;13.412;2023-04-01T02:21:23;4.97;;;3.33;;
2848;SDS011;59355;52.416;13.412;2023-04-01T02:23:50;4.60;;;3.37;;
2848;SDS011;59355;52.416;13.412;2023-04-01T02:26:17;4.80;;;3.90;;
2848;SDS011;59355;52.416;13.412;2023-04-01T02:28:43;4.27;;;3.87;;
2848;SDS011;59355;52.416;13.412;2023-04-01T02:31:11;4.77;;;3.33;;
2848;SDS011;59355;52.416;13.412;2023-04-01T02:33:38;7.60;;;3.43;;
2848;SDS011;59355;52.416;13.412;2023-04-01T02:36:03;4.07;;;3.67;;
2848;SDS011;59355;52.416;13.412;2023-04-01T02:38:29;4.97;;;3.40;;
2848;SDS011;59355;52.416;13.412;2023-04-01T02:40:58;5.17;;;3.33;;
2848;SDS011;59355;52.416;13.412;2023-04-01T02:43:25;5.60;;;3.37;;
2848;SDS011;59355;52.416;13.412;2023-04-01T02:45:50;4.90;;;4.10;;
2848;SDS011;59355;52.416;13.412;2023-04-01T02:48:15;5.50;;;3.67;;
2848;SDS011;59355;52.416;13.412;2023-04-01T02:50:41;4.30;;;3.50;;
2848;SDS011;59355;52.416;13.412;2023-04-01T02:53:06;3.60;;;3.30;;
2848;SDS011;59355;52.416;13.412;2023-04-01T02:55:32;5.90;;;3.37;;
2848;SDS011;59355;52.416;13.412;2023-04-01T02:57:58;3.50;;;3.20;;
2848;SDS011;59355;52.416;13.412;2023-04-01T03:00:23;3.90;;;3.17;;
2848;SDS011;59355;52.416;13.412;2023-04-01T03:02:49;4.13;;;2.97;;
2848;SDS011;59355;52.416;13.412;2023-04-01T03:05:14;6.13;;;3.30;;
2848;SDS011;59355;52.416;13.412;2023-04-01T03:07:40;5.07;;;3.40;;
2848;SDS011;59355;52.416;13.412;2023-04-01T03:10:05;5.57;;;3.60;;
2848;SDS011;59355;52.416;13.412;2023-04-01T03:12:31;7.43;;;3.30;;
2848;SDS011;59355;52.416;13.412;2023-04-01T03:14:57;5.00;;;2.87;;
2848;SDS011;59355;52.416;13.412;2023-04-01T03:17:22;4.83;;;3.03;;
2848;SDS011;59355;52.416;13.412;2023-04-01T03:19:47;4.50;;;3.30;;
2848;SDS011;59355;52.416;13.412;2023-04-01T03:22:13;7.17;;;3.63;;
2848;SDS011;59355;52.416;13.412;2023-04-01T03:24:38;4.27;;;3.03;;
2848;SDS011;59355;52.416;13.412;2023-04-01T03:27:03;6.57;;;4.00;;
2848;SDS011;59355;52.416;13.412;2023-04-01T03:29:29;5.00;;;3.33;;
2848;SDS011;59355;52.416;13.412;2023-04-01T03:31:54;4.50;;;3.83;;
2848;SDS011;59355;52.416;13.412;2023-04-01T03:34:22;6.57;;;3.60;;
2848;SDS011;59355;52.416;13.412;2023-04-01T03:36:47;3.90;;;3.27;;
2848;SDS011;59355;52.416;13.412;2023-04-01T03:39:13;4.50;;;3.50;;
2848;SDS011;59355;52.416;13.412;2023-04-01T03:41:38;4.90;;;3.77;;
2848;SDS011;59355;52.416;13.412;2023-04-01T03:44:03;5.00;;;4.50;;
2848;SDS011;59355;52.416;13.412;2023-04-01T03:46:29;4.87;;;3.93;;
2848;SDS011;59355;52.416;13.412;2023-04-01T03:48:54;5.80;;;3.90;;
2848;SDS011;59355;52.416;13.412;2023-04-01T03:51:20;5.13;;;4.37;;
2848;SDS011;59355;52.416;13.412;2023-04-01T03:53:45;4.00;;;3.60;;
2848;SDS011;59355;52.416;13.412;2023-04-01T03:56:10;6.23;;;4.20;;
2848;SDS011;59355;52.416;13.412;2023-04-01T03:58:36;5.27;;;3.93;;
2848;SDS011;59355;52.416;13.412;2023-04-01T04:01:02;5.87;;;4.10;;
2848;SDS011;59355;52.416;13.412;2023-04-01T04:03:27;5.13;;;3.87;;
2848;SDS011;59355;52.416;13.412;2023-04-01T04:05:53;5.27;;;3.47;;
2848;SDS011;59355;52.416;13.412;2023-04-01T04:08:18;5.23;;;4.00;;
2848;SDS011;59355;52.416;13.412;2023-04-01T04:10:43;4.67;;;4.17;;
2848;SDS011;59355;52.416;13.412;2023-04-01T04:13:09;6.13;;;3.40;;
2848;SDS011;59355;52.416;13.412;2023-04-01T04:15:34;4.93;;;3.73;;
2848;SDS011;59355;52.416;13.412;2023-04-01T04:18:00;4.70;;;3.30;;
2848;SDS011;59355;52.416;13.412;2023-04-01T04:20:25;5.00;;;3.60;;
2848;SDS011;59355;52.416;13.412;2023-04-01T04:22:50;5.23;;;3.60;;
2848;SDS011;59355;52.416;13.412;2023-04-01T04:25:15;4.40;;;3.80;;
2848;SDS011;59355;52.416;13.412;2023-04-01T04:27:41;4.13;;;3.63;;
2848;SDS011;59355;52.416;13.412;2023-04-01T04:30:06;6.43;;;3.90;;
2848;SDS011;59355;52.416;13.412;2023-04-01T04:32:32;4.03;;;3.63;;
2848;SDS011;59355;52.416;13.412;2023-04-01T04:34:58;5.23;;;4.30;;
2848;SDS011;59355;52.416;13.412;2023-04-01T04:37:23;6.57;;;4.23;;
2848;SDS011;59355;52.416;13.412;2023-04-01T04:39:48;7.17;;;4.17;;
2848;SDS011;59355;52.416;13.412;2023-04-01T04:42:14;4.20;;;3.80;;
2848;SDS011;59355;52.416;13.412;2023-04-01T04:44:39;4.20;;;3.80;;
2848;SDS011;59355;52.416;13.412;2023-04-01T04:47:04;7.57;;;3.80;;
2848;SDS011;59355;52.416;13.412;2023-04-01T04:49:30;4.07;;;3.67;;
2848;SDS011;59355;52.416;13.412;2023-04-01T04:51:55;4.37;;;3.97;;
2848;SDS011;59355;52.416;13.412;2023-04-01T04:54:21;5.90;;;4.30;;
2848;SDS011;59355;52.416;13.412;2023-04-01T04:56:46;4.17;;;3.77;;
2848;SDS011;59355;52.416;13.412;2023-04-01T04:59:11;4.47;;;3.60;;
2848;SDS011;59355;52.416;13.412;2023-04-01T05:01:37;6.43;;;3.97;;
2848;SDS011;59355;52.416;13.412;2023-04-01T05:04:03;4.50;;;4.10;;
2848;SDS011;59355;52.416;13.412;2023-04-01T05:06:28;5.60;;;4.23;;
2848;SDS011;59355;52.416;13.412;2023-04-01T05:08:54;5.23;;;4.77;;
2848;SDS011;59355;52.416;13.412;2023-04-01T05:11:20;5.50;;;4.00;;
2848;SDS011;59355;52.416;13.412;2023-04-01T05:13:46;5.63;;;5.00;;
2848;SDS011;59355;52.416;13.412;2023-04-01T05:16:13;5.67;;;4.47;;
2848;SDS011;59355;52.416;13.412;2023-04-01T05:18:39;5.73;;;4.40;;
2848;SDS011;59355;52.416;13.412;2023-04-01T05:21:06;5.50;;;4.70;;
2848;SDS011;59355;52.416;13.412;2023-04-01T05:23:32;10.90;;;4.00;;
2848;SDS011;59355;52.416;13.412;2023-04-01T05:25:58;5.63;;;4.20;;
2848;SDS011;59355;52.416;13.412;2023-04-01T05:28:27;5.80;;;4.10;;
2848;SDS011;59355;52.416;13.412;2023-04-01T05:30:52;7.53;;;5.00;;
2848;SDS011;59355;52.416;13.412;2023-04-01T05:33:17;6.80;;;4.40;;
2848;SDS011;59355;52.416;13.412;2023-04-01T05:35:43;6.37;;;4.40;;
2848;SDS011;59355;52.416;13.412;2023-04-01T05:38:08;6.70;;;3.90;;
2848;SDS011;59355;52.416;13.412;2023-04-01T05:40:34;5.60;;;3.87;;
2848;SDS011;59355;52.416;13.412;2023-04-01T05:42:59;5.17;;;4.00;;
2848;SDS011;59355;52.416;13.412;2023-04-01T05:45:25;6.33;;;4.60;;
2848;SDS011;59355;52.416;13.412;2023-04-01T05:47:51;5.27;;;3.93;;
2848;SDS011;59355;52.416;13.412;2023-04-01T05:50:16;5.93;;;4.50;;
2848;SDS011;59355;52.416;13.412;2023-04-01T05:52:41;5.93;;;4.20;;
2848;SDS011;59355;52.416;13.412;2023-04-01T05:55:07;6.10;;;4.60;;
2848;SDS011;59355;52.416;13.412;2023-04-01T05:57:33;7.60;;;3.90;;
2848;SDS011;59355;52.416;13.412;2023-04-01T05:59:58;6.80;;;4.47;;
2848;SDS011;59355;52.416;13.412;2023-04-01T06:02:24;9.87;;;5.70;;
2848;SDS011;59355;52.416;13.412;2023-04-01T06:04:49;8.83;;;7.00;;
2848;SDS011;59355;52.416;13.412;2023-04-01T06:07:19;8.73;;;5.70;;
2848;SDS011;59355;52.416;13.412;2023-04-01T06:09:45;8.93;;;6.40;;
2848;SDS011;59355;52.416;13.412;2023-04-01T06:12:23;5.57;;;4.90;;
2848;SDS011;59355;52.416;13.412;2023-04-01T06:17:46;5.03;;;4.53;;
2848;SDS011;59355;52.416;13.412;2023-04-01T06:20:24;5.63;;;4.50;;
2848;SDS011;59355;52.416;13.412;2023-04-01T06:23:17;8.43;;;4.67;;
2848;SDS011;59355;52.416;13.412;2023-04-01T06:26:14;5.53;;;4.23;;
2848;SDS011;59355;52.416;13.412;2023-04-01T06:31:30;8.87;;;4.97;;
2848;SDS011;59355;52.416;13.412;2023-04-01T06:36:51;4.93;;;4.13;;
2848;SDS011;59355;52.416;13.412;2023-04-01T06:44:55;6.13;;;4.37;;
2848;SDS011;59355;52.416;13.412;2023-04-01T06:47:38;6.63;;;4.73;;
2848;SDS011;59355;52.416;13.412;2023-04-01T06:55:41;6.50;;;4.80;;
2848;SDS011;59355;52.416;13.412;2023-04-01T06:58:58;7.23;;;4.70;;
2848;SDS011;59355;52.416;13.412;2023-04-01T07:01:02;5.83;;;3.93;;
2848;SDS011;59355;52.416;13.412;2023-04-01T07:03:36;4.73;;;4.17;;
2848;SDS011;59355;52.416;13.412;2023-04-01T07:06:11;5.40;;;3.80;;
2848;SDS011;59355;52.416;13.412;2023-04-01T07:08:40;6.50;;;5.33;;
2848;SDS011;59355;52.416;13.412;2023-04-01T07:11:09;5.20;;;4.50;;
2848;SDS011;59355;52.416;13.412;2023-04-01T07:13:49;5.10;;;4.07;;
2848;SDS011;59355;52.416;13.412;2023-04-01T07:16:19;5.30;;;4.70;;
2848;SDS011;59355;52.416;13.412;2023-04-01T07:18:53;6.70;;;4.20;;
2848;SDS011;59355;52.416;13.412;2023-04-01T07:21:26;4.20;;;3.40;;
2848;SDS011;59355;52.416;13.412;2023-04-01T07:23:56;4.77;;;3.20;;
2848;SDS011;59355;52.416;13.412;2023-04-01T07:26:26;6.33;;;3.50;;
2848;SDS011;59355;52.416;13.412;2023-04-01T07:28:52;4.27;;;3.63;;
2848;SDS011;59355;52.416;13.412;2023-04-01T07:31:28;3.10;;;2.80;;
2848;SDS011;59355;52.416;13.412;2023-04-01T07:34:09;10.53;;;3.40;;
2848;SDS011;59355;52.416;13.412;2023-04-01T07:36:47;9.73;;;4.10;;
2848;SDS011;59355;52.416;13.412;2023-04-01T07:39:18;3.47;;;2.90;;
2848;SDS011;59355;52.416;13.412;2023-04-01T07:42:08;5.90;;;3.20;;
2848;SDS011;59355;52.416;13.412;2023-04-01T07:44:52;7.57;;;3.00;;
2848;SDS011;59355;52.416;13.412;2023-04-01T07:47:34;6.53;;;3.20;;
2848;SDS011;59355;52.416;13.412;2023-04-01T07:50:27;4.10;;;2.93;;
2848;SDS011;59355;52.416;13.412;2023-04-01T07:53:17;8.63;;;3.80;;
2848;SDS011;59355;52.416;13.412;2023-04-01T07:56:02;5.60;;;3.10;;
2848;SDS011;59355;52.416;13.412;2023-04-01T08:01:18;5.13;;;3.13;;
2848;SDS011;59355;52.416;13.412;2023-04-01T08:09:26;8.67;;;3.90;;
2848;SDS011;59355;52.416;13.412;2023-04-01T08:12:13;6.57;;;2.93;;
2848;SDS011;59355;52.416;13.412;2023-04-01T08:17:33;4.27;;;2.57;;
2848;SDS011;59355;52.416;13.412;2023-04-01T08:22:53;4.30;;;2.77;;
2848;SDS011;59355;52.416;13.412;2023-04-01T08:25:24;3.87;;;2.50;;
2848;SDS011;59355;52.416;13.412;2023-04-01T08:27:53;7.43;;;3.77;;
2848;SDS011;59355;52.416;13.412;2023-04-01T08:30:26;4.93;;;3.10;;
2848;SDS011;59355;52.416;13.412;2023-04-01T08:38:30;5.23;;;2.93;;
2848;SDS011;59355;52.416;13.412;2023-04-01T08:41:09;5.67;;;3.20;;
2848;SDS011;59355;52.416;13.412;2023-04-01T08:43:50;5.70;;;2.90;;
2848;SDS011;59355;52.416;13.412;2023-04-01T08:54:35;4.07;;;2.80;;
2848;SDS011;59355;52.416;13.412;2023-04-01T09:00:22;5.33;;;2.70;;
2848;SDS011;59355;52.416;13.412;2023-04-01T09:08:34;5.17;;;2.80;;
2848;SDS011;59355;52.416;13.412;2023-04-01T09:11:04;5.80;;;2.70;;
2848;SDS011;59355;52.416;13.412;2023-04-01T09:13:49;3.60;;;3.00;;
2848;SDS011;59355;52.416;13.412;2023-04-01T09:16:32;4.20;;;3.80;;
2848;SDS011;59355;52.416;13.412;2023-04-01T09:21:58;5.83;;;5.23;;
2848;SDS011;59355;52.416;13.412;2023-04-01T09:27:14;7.13;;;5.60;;
2848;SDS011;59355;52.416;13.412;2023-04-01T09:29:50;7.40;;;6.70;;
2848;SDS011;59355;52.416;13.412;2023-04-01T09:32:42;7.90;;;6.83;;
2848;SDS011;59355;52.416;13.412;2023-04-01T09:35:36;7.17;;;6.40;;
2848;SDS011;59355;52.416;13.412;2023-04-01T10:11:03;10.67;;;9.67;;
2848;SDS011;59355;52.416;13.412;2023-04-01T10:17:00;13.93;;;11.77;;
2848;SDS011;59355;52.416;13.412;2023-04-01T10:19:40;12.80;;;11.40;;
2848;SDS011;59355;52.416;13.412;2023-04-01T10:28:33;11.73;;;10.53;;
2848;SDS011;59355;52.416;13.412;2023-04-01T10:31:26;13.00;;;11.60;;
2848;SDS011;59355;52.416;13.412;2023-04-01T10:37:23;16.63;;;12.03;;
2848;SDS011;59355;52.416;13.412;2023-04-01T10:46:19;13.20;;;11.90;;
2848;SDS011;59355;52.416;13.412;2023-04-01T10:49:00;13.57;;;12.13;;
2848;SDS011;59355;52.416;13.412;2023-04-01T11:12:09;13.20;;;12.00;;
2848;SDS011;59355;52.416;13.412;2023-04-01T11:14:59;12.83;;;11.60;;
2848;SDS011;59355;52.416;13.412;2023-04-01T11:20:56;12.67;;;11.47;;
2848;SDS011;59355;52.416;13.412;2023-04-01T11:32:12;9.90;;;9.07;;
2848;SDS011;59355;52.416;13.412;2023-04-01T11:34:57;8.40;;;7.70;;
2848;SDS011;59355;52.416;13.412;2023-04-01T11:40:57;8.57;;;7.80;;
2848;SDS011;59355;52.416;13.412;2023-04-01T11:46:11;8.07;;;7.37;;
2848;SDS011;59355;52.416;13.412;2023-04-01T11:48:58;9.07;;;8.17;;
2848;SDS011;59355;52.416;13.412;2023-04-01T11:57:04;7.70;;;6.97;;
2848;SDS011;59355;52.416;13.412;2023-04-01T12:02:20;7.90;;;7.20;;
2848;SDS011;59355;52.416;13.412;2023-04-01T12:04:54;7.30;;;6.60;;
2848;SDS011;59355;52.416;13.412;2023-04-01T12:10:39;6.00;;;5.50;;
2848;SDS011;59355;52.416;13.412;2023-04-01T12:13:14;5.77;;;5.23;;
2848;SDS011;59355;52.416;13.412;2023-04-01T12:15:51;4.93;;;4.53;;
2848;SDS011;59355;52.416;13.412;2023-04-01T12:18:32;5.70;;;5.20;;
2848;SDS011;59355;52.416;13.412;2023-04-01T12:23:55;5.40;;;4.90;;
2848;SDS011;59355;52.416;13.412;2023-04-01T12:29:26;5.53;;;5.03;;
2848;SDS011;59355;52.416;13.412;2023-04-01T12:32:09;5.30;;;4.90;;
2848;SDS011;59355;52.416;13.412;2023-04-01T12:45:35;4.40;;;4.00;;
2848;SDS011;59355;52.416;13.412;2023-04-01T12:48:14;4.67;;;4.27;;
2848;SDS011;59355;52.416;13.412;2023-04-01T12:51:01;6.40;;;4.73;;
2848;SDS011;59355;52.416;13.412;2023-04-01T12:53:33;4.60;;;4.20;;
2848;SDS011;59355;52.416;13.412;2023-04-01T12:56:09;5.30;;;4.90;;
2848;SDS011;59355;52.416;13.412;2023-04-01T13:04:45;5.90;;;4.97;;
2848;SDS011;59355;52.416;13.412;2023-04-01T13:07:42;5.00;;;4.23;;
2848;SDS011;59355;52.416;13.412;2023-04-01T13:18:16;5.23;;;4.70;;
2848;SDS011;59355;52.416;13.412;2023-04-01T13:20:54;6.23;;;5.40;;
2848;SDS011;59355;52.416;13.412;2023-04-01T13:26:24;5.17;;;4.67;;
2848;SDS011;59355;52.416;13.412;2023-04-01T13:29:12;6.10;;;5.53;;
2848;SDS011;59355;52.416;13.412;2023-04-01T13:34:22;7.40;;;4.90;;
2848;SDS011;59355;52.416;13.412;2023-04-01T13:39:58;6.67;;;6.00;;
2848;SDS011;59355;52.416;13.412;2023-04-01T13:42:29;7.90;;;7.20;;
2848;SDS011;59355;52.416;13.412;2023-04-01T13:45:03;8.57;;;7.87;;
2848;SDS011;59355;52.416;13.412;2023-04-01T13:47:45;9.10;;;8.30;;
2848;SDS011;59355;52.416;13.412;2023-04-01T13:50:42;10.57;;;9.17;;
2848;SDS011;59355;52.416;13.412;2023-04-01T13:53:35;9.80;;;8.90;;
2848;SDS011;59355;52.416;13.412;2023-04-01T13:56:32;11.73;;;10.53;;
2848;SDS011;59355;52.416;13.412;2023-04-01T14:01:33;11.30;;;10.23;;
2848;SDS011;59355;52.416;13.412;2023-04-01T14:04:25;11.70;;;10.50;;
2848;SDS011;59355;52.416;13.412;2023-04-01T14:09:52;11.30;;;10.20;;
2848;SDS011;59355;52.416;13.412;2023-04-01T14:12:43;10.90;;;9.67;;
2848;SDS011;59355;52.416;13.412;2023-04-01T14:15:21;11.23;;;10.03;;
2848;SDS011;59355;52.416;13.412;2023-04-01T14:21:36;11.43;;;10.40;;
2848;SDS011;59355;52.416;13.412;2023-04-01T14:24:08;10.20;;;9.20;;
2848;SDS011;59355;52.416;13.412;2023-04-01T14:26:49;10.90;;;9.93;;
2848;SDS011;59355;52.416;13.412;2023-04-01T14:35:14;10.27;;;9.37;;
2848;SDS011;59355;52.416;13.412;2023-04-01T14:37:57;11.03;;;9.93;;
2848;SDS011;59355;52.416;13.412;2023-04-01T14:40:40;10.80;;;9.90;;
2848;SDS011;59355;52.416;13.412;2023-04-01T14:43:22;10.60;;;9.50;;
2848;SDS011;59355;52.416;13.412;2023-04-01T14:48:51;11.10;;;10.10;;
2848;SDS011;59355;52.416;13.412;2023-04-01T14:51:23;11.13;;;10.03;;
2848;SDS011;59355;52.416;13.412;2023-04-01T14:56:35;10.03;;;9.13;;
2848;SDS011;59355;52.416;13.412;2023-04-01T14:59:00;8.57;;;7.77;;
2848;SDS011;59355;52.416;13.412;2023-04-01T15:01:32;8.00;;;7.30;;
2848;SDS011;59355;52.416;13.412;2023-04-01T15:09:33;8.60;;;7.80;;
2848;SDS011;59355;52.416;13.412;2023-04-01T15:12:24;8.20;;;7.50;;
2848;SDS011;59355;52.416;13.412;2023-04-01T15:15:11;7.50;;;6.80;;
2848;SDS011;59355;52.416;13.412;2023-04-01T15:20:41;8.97;;;8.07;;
2848;SDS011;59355;52.416;13.412;2023-04-01T15:26:26;8.83;;;8.13;;
2848;SDS011;59355;52.416;13.412;2023-04-01T15:29:25;9.37;;;8.27;;
2848;SDS011;59355;52.416;13.412;2023-04-01T15:32:16;8.57;;;7.77;;
2848;SDS011;59355;52.416;13.412;2023-04-01T15:34:56;7.53;;;6.93;;
2848;SDS011;59355;52.416;13.412;2023-04-01T15:42:32;8.97;;;8.17;;
2848;SDS011;59355;52.416;13.412;2023-04-01T15:45:03;8.77;;;7.87;;
2848;SDS011;59355;52.416;13.412;2023-04-01T15:55:45;9.53;;;8.63;;
2848;SDS011;59355;52.416;13.412;2023-04-01T16:03:53;8.03;;;7.33;;
2848;SDS011;59355;52.416;13.412;2023-04-01T16:06:47;8.67;;;7.77;;
2848;SDS011;59355;52.416;13.412;2023-04-01T16:09:26;6.93;;;6.33;;
2848;SDS011;59355;52.416;13.412;2023-04-01T16:12:18;7.37;;;6.70;;
2848;SDS011;59355;52.416;13.412;2023-04-01T16:20:35;7.60;;;6.97;;
2848;SDS011;59355;52.416;13.412;2023-04-01T16:23:17;7.83;;;7.13;;
2848;SDS011;59355;52.416;13.412;2023-04-01T16:25:53;7.47;;;6.87;;
2848;SDS011;59355;52.416;13.412;2023-04-01T16:28:34;8.67;;;7.83;;
2848;SDS011;59355;52.416;13.412;2023-04-01T16:31:08;9.00;;;8.13;;
2848;SDS011;59355;52.416;13.412;2023-04-01T16:33:49;8.60;;;7.90;;
2848;SDS011;59355;52.416;13.412;2023-04-01T16:36:22;10.10;;;9.20;;
2848;SDS011;59355;52.416;13.412;2023-04-01T16:39:06;11.60;;;10.53;;
2848;SDS011;59355;52.416;13.412;2023-04-01T16:41:36;9.90;;;8.90;;
2848;SDS011;59355;52.416;13.412;2023-04-01T16:44:20;11.43;;;10.33;;
2848;SDS011;59355;52.416;13.412;2023-04-01T16:47:05;11.20;;;10.20;;
2848;SDS011;59355;52.416;13.412;2023-04-01T16:52:12;11.47;;;10.60;;
2848;SDS011;59355;52.416;13.412;2023-04-01T16:54:44;11.17;;;10.27;;
2848;SDS011;59355;52.416;13.412;2023-04-01T16:57:25;12.27;;;11.27;;
2848;SDS011;59355;52.416;13.412;2023-04-01T16:59:54;11.00;;;10.00;;
2848;SDS011;59355;52.416;13.412;2023-04-01T17:02:28;11.70;;;10.70;;
2848;SDS011;59355;52.416;13.412;2023-04-01T17:05:05;10.13;;;9.00;;
2848;SDS011;59355;52.416;13.412;2023-04-01T17:15:57;11.37;;;10.47;;
2848;SDS011;59355;52.416;13.412;2023-04-01T17:18:45;12.23;;;11.13;;
2848;SDS011;59355;52.416;13.412;2023-04-01T17:29:56;13.20;;;11.50;;
2848;SDS011;59355;52.416;13.412;2023-04-01T17:32:45;10.77;;;9.80;;
2848;SDS011;59355;52.416;13.412;2023-04-01T17:35:26;10.10;;;9.10;;
2848;SDS011;59355;52.416;13.412;2023-04-01T17:49:37;9.40;;;8.60;;
2848;SDS011;59355;52.416;13.412;2023-04-01T17:52:21;10.60;;;9.60;;
2848;SDS011;59355;52.416;13.412;2023-04-01T17:57:46;9.70;;;8.90;;
2848;SDS011;59355;52.416;13.412;2023-04-01T18:06:02;12.57;;;11.27;;
2848;SDS011;59355;52.416;13.412;2023-04-01T18:08:42;11.37;;;10.37;;
2848;SDS011;59355;52.416;13.412;2023-04-01T18:11:20;10.73;;;9.83;;
2848;SDS011;59355;52.416;13.412;2023-04-01T18:16:46;10.30;;;9.33;;
2848;SDS011;59355;52.416;13.412;2023-04-01T18:19:32;11.43;;;10.50;;
2848;SDS011;59355;52.416;13.412;2023-04-01T18:22:39;10.97;;;10.07;;
2848;SDS011;59355;52.416;13.412;2023-04-01T18:33:31;9.00;;;8.10;;
2848;SDS011;59355;52.416;13.412;2023-04-01T18:36:08;8.83;;;8.07;;
2848;SDS011;59355;52.416;13.412;2023-04-01T18:38:36;9.67;;;8.77;;
2848;SDS011;59355;52.416;13.412;2023-04-01T18:41:22;10.57;;;8.23;;
2848;SDS011;59355;52.416;13.412;2023-04-01T18:43:53;9.03;;;8.13;;
2848;SDS011;59355;52.416;13.412;2023-04-01T18:49:29;7.70;;;7.00;;
2848;SDS011;59355;52.416;13.412;2023-04-01T18:51:59;8.50;;;7.43;;
2848;SDS011;59355;52.416;13.412;2023-04-01T18:54:30;8.10;;;7.00;;
2848;SDS011;59355;52.416;13.412;2023-04-01T18:57:01;9.63;;;7.10;;
2848;SDS011;59355;52.416;13.412;2023-04-01T18:59:32;7.87;;;7.07;;
2848;SDS011;59355;52.416;13.412;2023-04-01T19:02:03;10.13;;;7.30;;
2848;SDS011;59355;52.416;13.412;2023-04-01T19:04:56;6.80;;;6.10;;
2848;SDS011;59355;52.416;13.412;2023-04-01T19:07:48;7.47;;;6.83;;
2848;SDS011;59355;52.416;13.412;2023-04-01T19:13:01;8.90;;;8.00;;
2848;SDS011;59355;52.416;13.412;2023-04-01T19:18:22;8.97;;;8.07;;
2848;SDS011;59355;52.416;13.412;2023-04-01T19:20:56;6.70;;;5.90;;
2848;SDS011;59355;52.416;13.412;2023-04-01T19:26:17;5.90;;;5.40;;
2848;SDS011;59355;52.416;13.412;2023-04-01T19:28:47;5.73;;;5.23;;
2848;SDS011;59355;52.416;13.412;2023-04-01T19:31:51;8.47;;;6.00;;
2848;SDS011;59355;52.416;13.412;2023-04-01T19:34:49;7.43;;;6.73;;
2848;SDS011;59355;52.416;13.412;2023-04-01T19:37:26;7.73;;;6.90;;
2848;SDS011;59355;52.416;13.412;2023-04-01T19:40:16;9.47;;;7.30;;
2848;SDS011;59355;52.416;13.412;2023-04-01T19:43:00;10.00;;;7.80;;
2848;SDS011;59355;52.416;13.412;2023-04-01T19:54:09;8.33;;;7.43;;
2848;SDS011;59355;52.416;13.412;2023-04-01T19:56:45;9.10;;;7.87;;
2848;SDS011;59355;52.416;13.412;2023-04-01T19:59:16;8.20;;;7.50;;
2848;SDS011;59355;52.416;13.412;2023-04-01T20:01:53;8.10;;;7.30;;
2848;SDS011;59355;52.416;13.412;2023-04-01T20:04:43;12.83;;;8.47;;
2848;SDS011;59355;52.416;13.412;2023-04-01T20:07:12;7.50;;;6.80;;
2848;SDS011;59355;52.416;13.412;2023-04-01T20:12:42;7.60;;;6.97;;
2848;SDS011;59355;52.416;13.412;2023-04-01T20:15:27;10.37;;;7.93;;
2848;SDS011;59355;52.416;13.412;2023-04-01T20:17:59;11.00;;;8.30;;
2848;SDS011;59355;52.416;13.412;2023-04-01T20:20:28;10.20;;;8.93;;
2848;SDS011;59355;52.416;13.412;2023-04-01T20:25:43;8.30;;;7.50;;
2848;SDS011;59355;52.416;13.412;2023-04-01T20:28:20;10.00;;;7.60;;
2848;SDS011;59355;52.416;13.412;2023-04-01T20:31:02;12.07;;;7.90;;
2848;SDS011;59355;52.416;13.412;2023-04-01T20:47:53;9.93;;;8.90;;
2848;SDS011;59355;52.416;13.412;2023-04-01T21:01:40;12.60;;;9.43;;
2848;SDS011;59355;52.416;13.412;2023-04-01T21:10:08;10.20;;;8.97;;
2848;SDS011;59355;52.416;13.412;2023-04-01T21:13:02;9.83;;;8.83;;
2848;SDS011;59355;52.416;13.412;2023-04-01T21:32:36;11.77;;;9.20;;
2848;SDS011;59355;52.416;13.412;2023-04-01T21:35:23;11.13;;;9.30;;
2848;SDS011;59355;52.416;13.412;2023-04-01T21:38:08;12.67;;;8.80;;
2848;SDS011;59355;52.416;13.412;2023-04-01T21:41:00;8.93;;;8.03;;
2848;SDS011;59355;52.416;13.412;2023-04-01T21:46:43;10.73;;;9.50;;
2848;SDS011;59355;52.416;13.412;2023-04-01T22:11:57;9.83;;;8.27;;
2848;SDS011;59355;52.416;13.412;2023-04-01T22:14:33;8.40;;;7.63;;
2848;SDS011;59355;52.416;13.412;2023-04-01T22:22:52;8.30;;;7.40;;
2848;SDS011;59355;52.416;13.412;2023-04-01T22:28:07;9.70;;;7.90;;